createdAt,value
2016-11-01T16:37:19.674Z,95.89
2016-11-01T16:38:29.346Z,95.98
2016-11-01T16:39:41.337Z,95.98
2016-11-01T16:40:51.970Z,95.98
2016-11-01T16:42:03.232Z,96.37
2016-11-01T16:43:14.928Z,96.37
2016-11-01T16:44:27.649Z,96.75
2016-11-01T16:45:39.152Z,96.37
2016-11-01T16:46:51.769Z,96.42
2016-11-01T16:48:04.879Z,96.56
2016-11-01T16:49:16.351Z,96.42
2016-11-01T16:50:28.967Z,97.28
2016-11-01T16:51:40.891Z,96.61
2016-11-01T16:52:52.931Z,96.32
2016-11-01T16:54:04.719Z,97.28
2016-11-01T16:55:16.748Z,97.09
2016-11-01T16:56:28.232Z,96.9
2016-11-01T16:57:38.704Z,96.8
2016-11-01T16:58:49.773Z,96.9
2016-11-01T17:00:01.962Z,96.9
2016-11-01T17:01:14.063Z,97.28
2016-11-01T17:02:26.067Z,97.09
2016-11-01T17:03:37.609Z,97.09
2016-11-01T17:04:49.134Z,97.24
2016-11-01T17:06:00.998Z,96.7
2016-11-01T17:07:13.060Z,97.09
2016-11-01T17:08:24.405Z,97.76
2016-11-01T17:09:36.685Z,96.9
2016-11-01T17:10:48.091Z,97.24
2016-11-01T17:11:59.867Z,97.96
2016-11-01T17:13:12.034Z,97.57
2016-11-01T17:14:23.717Z,97.67
2016-11-01T17:15:34.198Z,97.47
2016-11-01T17:16:46.692Z,97.67
2016-11-01T17:17:59.063Z,97.67
2016-11-01T17:19:11.368Z,97.67
2016-11-01T17:20:23.340Z,97.67
2016-11-01T17:21:34.280Z,97.57
2016-11-01T17:22:45.721Z,97.47
2016-11-01T17:23:58.500Z,97.47
2016-11-01T17:25:10.360Z,97.67
2016-11-01T17:26:21.993Z,97.67
2016-11-01T17:27:33.757Z,97.57
2016-11-01T17:28:45.445Z,97.67
2016-11-01T17:29:56.034Z,98.14
2016-11-01T17:31:06.374Z,97.57
2016-11-01T17:32:17.496Z,97.96
2016-11-01T17:33:28.281Z,97.96
2016-11-01T17:34:38.204Z,97.76
2016-11-01T17:35:50.033Z,97.96
2016-11-01T17:37:02.113Z,98.14
2016-11-01T17:38:14.291Z,98.05
2016-11-01T17:39:26.100Z,98.24
2016-11-01T17:40:37.741Z,97.96
2016-11-01T17:41:49.188Z,98.05
2016-11-01T17:42:59.714Z,98.05
2016-11-01T17:44:10.855Z,97.57
2016-11-01T17:45:22.214Z,98.05
2016-11-01T17:46:34.553Z,97.67
2016-11-01T17:47:45.837Z,97.76
2016-11-01T17:48:57.139Z,97.76
2016-11-01T17:50:07.547Z,97.76
2016-11-01T17:51:19.517Z,97.47
2016-11-01T17:52:28.959Z,97.67
2016-11-01T17:53:41.305Z,97.76
2016-11-01T17:54:52.595Z,97.86
2016-11-01T17:56:05.403Z,97.47
2016-11-01T17:57:17.218Z,97.57
2016-11-01T17:58:29.793Z,97.76
2016-11-01T17:59:42.548Z,97.67
2016-11-01T18:00:53.507Z,97.76
2016-11-01T18:02:05.403Z,97.76
2016-11-01T18:03:17.443Z,97.47
2016-11-01T18:04:27.833Z,97.28
2016-11-01T18:05:38.709Z,97.67
2016-11-01T18:06:50.878Z,97.76
2016-11-01T18:08:02.100Z,97.09
2016-11-01T18:09:12.015Z,97.67
2016-11-01T18:10:23.436Z,97.57
2016-11-01T18:11:35.425Z,97.38
2016-11-01T18:12:47.962Z,97.47
2016-11-01T18:13:58.778Z,97.57
2016-11-01T18:15:10.674Z,97.96
2016-11-01T18:16:21.991Z,97.57
2016-11-01T18:17:33.158Z,97.67
2016-11-01T18:18:44.892Z,97.38
2016-11-01T18:19:57.648Z,97.76
2016-11-01T18:21:08.911Z,97.57
2016-11-01T18:22:21.558Z,97.96
2016-11-01T18:23:33.388Z,98.05
2016-11-01T18:24:46.221Z,97.96
2016-11-01T18:25:56.713Z,98.14
2016-11-01T18:27:07.710Z,97.96
2016-11-01T18:28:19.963Z,98.05
2016-11-01T18:29:31.722Z,98.14
2016-11-01T18:30:42.393Z,98.05
2016-11-01T18:31:53.751Z,98.24
2016-11-01T18:33:05.840Z,97.67
2016-11-01T18:34:16.332Z,97.76
2016-11-01T18:35:28.707Z,97.96
2016-11-01T18:36:41.347Z,97.76
2016-11-01T18:37:54.137Z,97.76
2016-11-01T18:39:05.437Z,98.05
2016-11-01T18:40:18.059Z,97.86
2016-11-01T18:41:30.202Z,98.14
2016-11-01T18:42:41.091Z,98.14
2016-11-01T18:43:51.784Z,98.05
2016-11-01T18:45:03.430Z,97.96
2016-11-01T18:46:16.125Z,98.05
2016-11-01T18:47:28.450Z,98.72
2016-11-01T18:48:40.325Z,98.24
2016-11-01T18:49:51.268Z,97.96
2016-11-01T18:51:02.925Z,98.44
2016-11-01T18:52:13.669Z,98.53
2016-11-01T18:53:25.347Z,98.19
2016-11-01T18:54:36.310Z,98
2016-11-01T18:55:49.550Z,98.34
2016-11-01T18:57:02.269Z,98
2016-11-01T18:58:13.417Z,97.91
2016-11-01T18:59:25.448Z,98.19
2016-11-01T19:00:36.557Z,98.34
2016-11-01T19:01:49.307Z,98.39
2016-11-01T19:03:01.079Z,98.14
2016-11-01T19:04:11.879Z,98.14
2016-11-01T19:05:23.112Z,98.44
2016-11-01T19:06:34.408Z,98.1
2016-11-01T19:07:45.289Z,98
2016-11-01T19:08:55.645Z,98.29
2016-11-01T19:10:07.388Z,98.1
2016-11-01T19:11:17.573Z,98.29
2016-11-01T19:12:28.716Z,98.48
2016-11-01T19:13:39.873Z,98.58
2016-11-01T19:14:52.128Z,98.48
2016-11-01T19:16:02.657Z,98.39
2016-11-01T19:17:13.455Z,98.58
2016-11-01T19:18:25.674Z,98.77
2016-11-01T19:19:37.404Z,98.58
2016-11-01T19:20:49.610Z,98.58
2016-11-01T19:22:00.412Z,98.68
2016-11-01T19:23:12.338Z,98.58
2016-11-01T19:24:24.186Z,98.96
2016-11-01T19:25:34.493Z,98.86
2016-11-01T19:26:44.675Z,97.81
2016-11-01T19:27:55.308Z,98.58
2016-11-01T19:29:08.156Z,98.58
2016-11-01T19:30:19.708Z,98.58
2016-11-01T19:31:32.536Z,98.68
2016-11-01T19:32:44.164Z,98.68
2016-11-01T19:33:56.113Z,98.58
2016-11-01T19:35:08.742Z,98.68
2016-11-01T19:36:21.273Z,98.86
2016-11-01T19:37:32.949Z,98.77
2016-11-01T19:38:43.806Z,98.68
2016-11-01T19:39:56.603Z,98.86
2016-11-01T19:41:08.728Z,99.06
2016-11-01T19:42:21.173Z,99.06
2016-11-01T19:43:32.881Z,98.86
2016-11-01T19:44:43.705Z,99.06
2016-11-01T19:45:55.382Z,99.15
2016-11-01T19:47:06.193Z,99.06
2016-11-01T19:48:17.222Z,98.77
2016-11-01T19:49:28.959Z,99.15
2016-11-01T19:50:41.374Z,98.86
2016-11-01T19:51:52.678Z,98.68
2016-11-01T19:53:03.493Z,99.06
2016-11-01T19:54:15.475Z,99.25
2016-11-01T19:55:26.422Z,99.25
2016-11-01T19:56:38.891Z,98.58
2016-11-01T19:57:50.948Z,98.77
2016-11-01T19:59:02.811Z,98.68
2016-11-01T20:00:14.828Z,98.48
2016-11-01T20:01:27.576Z,98.58
2016-11-01T20:02:39.630Z,98.77
2016-11-01T20:03:50.907Z,99.25
2016-11-01T20:05:01.720Z,98.68
2016-11-01T20:06:11.923Z,98.58
2016-11-01T20:07:23.507Z,98.77
2016-11-01T20:08:35.141Z,98.39
2016-11-01T20:09:47.163Z,98.58
2016-11-01T20:10:59.092Z,99.06
2016-11-01T20:12:11.138Z,98.29
2016-11-01T20:13:22.444Z,98.86
2016-11-01T20:14:33.670Z,98.39
2016-11-01T20:15:45.499Z,98.86
2016-11-01T20:16:57.356Z,98.86
2016-11-01T20:18:09.879Z,98.77
2016-11-01T20:19:21.923Z,98.96
2016-11-01T20:20:33.052Z,98.96
2016-11-01T20:21:43.647Z,98.96
2016-11-01T20:22:55.835Z,98.86
2016-11-01T20:24:06.990Z,98.96
2016-11-01T20:25:18.201Z,99.25
2016-11-01T20:26:30.759Z,98.58
2016-11-01T20:27:42.679Z,98.68
2016-11-01T20:28:53.692Z,98.58
2016-11-01T20:30:06.123Z,98.86
2016-11-01T20:31:17.509Z,98.86
2016-11-01T20:32:28.677Z,99.06
2016-11-01T20:33:39.976Z,98.86
2016-11-01T20:34:51.657Z,98.96
2016-11-01T20:36:03.060Z,98.86
2016-11-01T20:37:15.170Z,98.96
2016-11-01T20:38:25.764Z,99.06
2016-11-01T20:39:37.231Z,98.77
2016-11-01T20:40:47.046Z,99.06
2016-11-01T20:41:58.107Z,98.77
2016-11-01T20:43:08.794Z,98.91
2016-11-01T20:44:20.473Z,99.01
2016-11-01T20:45:32.622Z,99.01
2016-11-01T20:46:43.656Z,99.01
2016-11-01T20:47:54.923Z,99.01
2016-11-01T20:49:05.911Z,99.2
2016-11-01T20:50:17.696Z,99.4
2016-11-01T20:51:29.043Z,99.1
2016-11-01T20:52:39.957Z,98.91
2016-11-01T20:53:51.816Z,98.82
2016-11-01T20:55:02.532Z,99.01
2016-11-01T20:56:15.226Z,99.1
2016-11-01T20:57:26.853Z,99.4
2016-11-01T20:58:38.984Z,99.3
2016-11-01T20:59:50.957Z,99.01
2016-11-01T21:01:01.832Z,99.2
2016-11-01T21:02:12.820Z,99.3
2016-11-01T21:03:24.348Z,99.3
2016-11-01T21:04:36.500Z,99.3
2016-11-01T21:05:47.837Z,99.3
2016-11-01T21:06:59.491Z,99.2
2016-11-01T21:08:10.566Z,99.58
2016-11-01T21:09:23.100Z,99.68
2016-11-01T21:10:35.615Z,99.87
2016-11-01T21:11:46.566Z,99.68
2016-11-01T21:12:56.743Z,99.68
2016-11-01T21:14:09.310Z,99.49
2016-11-01T21:15:20.952Z,99.01
2016-11-01T21:16:33.657Z,99.4
2016-11-01T21:17:45.454Z,99.54
2016-11-01T21:18:56.028Z,99.63
2016-11-01T21:20:06.788Z,99.34
2016-11-01T21:21:19.299Z,99.34
2016-11-01T21:22:30.102Z,99.63
2016-11-01T21:23:40.776Z,99.54
2016-11-01T21:24:52.534Z,99.82
2016-11-01T21:26:04.982Z,99.63
2016-11-01T21:27:16.005Z,99.63
2016-11-01T21:28:27.892Z,99.44
2016-11-01T21:29:39.541Z,99.82
2016-11-01T21:30:51.039Z,99.82
2016-11-01T21:32:02.931Z,99.82
2016-11-01T21:33:13.689Z,99.99
2016-11-01T21:34:25.907Z,99.99
2016-11-01T21:35:37.382Z,99.99
2016-11-01T21:36:48.210Z,99.99
2016-11-01T21:37:59.727Z,99.99
2016-11-01T21:39:12.273Z,99.99
2016-11-01T21:40:24.379Z,99.99
2016-11-01T21:41:35.261Z,99.99
2016-11-01T21:42:48.317Z,99.99
2016-11-01T21:44:01.076Z,99.99
2016-11-01T21:45:13.576Z,99.99
2016-11-01T21:46:26.158Z,99.99
2016-11-01T21:47:37.857Z,99.99
2016-11-01T21:48:49.333Z,99.99
2016-11-01T21:50:00.787Z,99.96
2016-11-01T21:51:13.214Z,99.99
2016-11-01T21:52:26.327Z,99.99
2016-11-01T21:53:38.169Z,99.99
2016-11-01T21:54:50.044Z,99.99
2016-11-01T21:56:02.191Z,99.99
2016-11-01T21:57:13.473Z,99.99
2016-11-01T21:58:25.727Z,99.99
2016-11-01T21:59:38.474Z,99.99
2016-11-01T22:00:50.720Z,99.99
2016-11-01T22:02:03.284Z,99.99
2016-11-01T22:03:14.801Z,99.99
2016-11-01T22:04:26.693Z,99.99
2016-11-01T22:05:38.293Z,99.99
2016-11-01T22:06:48.652Z,99.99
2016-11-01T22:08:01.382Z,99.99
2016-11-01T22:09:12.655Z,99.99
2016-11-01T22:10:24.484Z,99.99
2016-11-01T22:11:37.118Z,99.99
2016-11-01T22:12:48.673Z,99.99
2016-11-01T22:14:00.143Z,99.99
2016-11-01T22:15:13.292Z,99.99
2016-11-01T22:16:25.252Z,99.99
2016-11-01T22:17:36.277Z,99.99
2016-11-01T22:18:48.821Z,99.99
2016-11-01T22:20:01.567Z,99.99
2016-11-01T22:21:12.818Z,99.99
2016-11-01T22:22:23.866Z,99.99
2016-11-01T22:23:36.405Z,99.99
2016-11-01T22:24:49.167Z,99.99
2016-11-01T22:26:00.913Z,99.99
2016-11-01T22:27:12.361Z,99.99
2016-11-01T22:28:24.158Z,99.99
2016-11-01T22:29:35.665Z,99.99
2016-11-01T22:30:48.499Z,99.99
2016-11-01T22:31:59.778Z,99.99
2016-11-01T22:33:10.311Z,99.99
2016-11-01T22:34:21.294Z,99.99
2016-11-01T22:35:32.290Z,99.99
2016-11-01T22:36:45.623Z,99.99
2016-11-01T22:37:58.323Z,99.99
2016-11-01T22:39:09.413Z,99.99
2016-11-01T22:40:19.656Z,99.99
2016-11-01T22:41:31.989Z,99.99
2016-11-01T22:42:43.823Z,99.99
2016-11-01T22:43:55.560Z,99.99
2016-11-01T22:45:07.212Z,99.99
2016-11-01T22:46:19.074Z,99.99
2016-11-01T22:47:30.264Z,99.99
2016-11-01T22:48:41.949Z,99.99
2016-11-01T22:49:53.396Z,99.99
2016-11-01T22:51:05.306Z,99.99
2016-11-01T22:52:17.831Z,99.99
2016-11-01T22:53:29.597Z,99.99
2016-11-01T22:54:41.809Z,99.99
2016-11-01T22:55:53.958Z,99.99
2016-11-01T22:57:05.368Z,99.99
2016-11-01T22:58:15.714Z,99.99
2016-11-01T22:59:27.637Z,99.99
2016-11-01T23:00:40.044Z,99.99
2016-11-01T23:01:52.356Z,99.99
2016-11-01T23:03:04.601Z,99.99
2016-11-01T23:04:16.870Z,99.99
2016-11-01T23:05:28.464Z,99.99
2016-11-01T23:06:39.981Z,99.99
2016-11-01T23:07:52.802Z,99.99
2016-11-01T23:09:04.438Z,99.99
2016-11-01T23:10:17.162Z,99.99
2016-11-01T23:11:29.306Z,99.99
2016-11-01T23:12:41.075Z,99.99
2016-11-01T23:13:52.365Z,99.99
2016-11-01T23:15:04.647Z,99.99
2016-11-01T23:16:15.960Z,99.99
2016-11-01T23:17:27.643Z,99.99
2016-11-01T23:18:40.358Z,99.99
2016-11-01T23:19:52.134Z,99.99
2016-11-01T23:21:03.747Z,99.99
2016-11-01T23:22:16.086Z,99.99
2016-11-01T23:23:28.452Z,99.99
2016-11-01T23:24:40.789Z,99.99
2016-11-01T23:25:52.129Z,99.99
2016-11-01T23:27:05.347Z,99.99
2016-11-01T23:28:17.714Z,99.99
2016-11-01T23:29:30.353Z,99.99
2016-11-01T23:30:43.560Z,99.99
2016-11-01T23:31:55.496Z,99.99
2016-11-01T23:33:07.214Z,99.99
2016-11-01T23:34:18.484Z,99.99
2016-11-01T23:35:29.201Z,99.99
2016-11-01T23:36:41.918Z,99.99
2016-11-01T23:37:53.718Z,99.99
2016-11-01T23:39:04.751Z,99.99
2016-11-01T23:40:16.271Z,99.99
2016-11-01T23:41:27.736Z,99.99
2016-11-01T23:42:39.985Z,99.99
2016-11-01T23:43:51.098Z,99.99
2016-11-01T23:45:03.454Z,99.99
2016-11-01T23:46:15.469Z,99.99
2016-11-01T23:47:28.195Z,99.99
2016-11-01T23:48:40.867Z,99.99
2016-11-01T23:49:53.012Z,99.99
2016-11-01T23:51:03.641Z,99.99
2016-11-01T23:52:15.275Z,99.99
2016-11-01T23:53:26.504Z,99.99
2016-11-01T23:54:37.654Z,99.99
2016-11-01T23:55:50.359Z,99.99
2016-11-01T23:57:02.627Z,99.99
2016-11-01T23:58:15.846Z,99.99
2016-11-01T23:59:27.676Z,99.99
